sensor_id;sensor_type;location;lat;lon;timestamp;P1;durP1;ratioP1;P2;durP2;ratioP2
20705;SDS011;10514;49.468;11.044;2022-07-21T00:02:18;5.50;;;4.13;;
20705;SDS011;10514;49.468;11.044;2022-07-21T00:04:44;4.38;;;3.63;;
20705;SDS011;10514;49.468;11.044;2022-07-21T00:07:10;5.13;;;3.53;;
20705;SDS011;10514;49.468;11.044;2022-07-21T00:09:36;5.05;;;2.97;;
20705;SDS011;10514;49.468;11.044;2022-07-21T00:12:04;5.28;;;3.00;;
20705;SDS011;10514;49.468;11.044;2022-07-21T00:14:31;4.15;;;3.20;;
20705;SDS011;10514;49.468;11.044;2022-07-21T00:16:56;6.03;;;3.15;;
20705;SDS011;10514;49.468;11.044;2022-07-21T00:19:22;7.30;;;3.45;;
20705;SDS011;10514;49.468;11.044;2022-07-21T00:21:48;6.93;;;2.90;;
20705;SDS011;10514;49.468;11.044;2022-07-21T00:24:13;5.18;;;3.20;;
20705;SDS011;10514;49.468;11.044;2022-07-21T00:26:39;4.15;;;3.22;;
20705;SDS011;10514;49.468;11.044;2022-07-21T00:29:07;4.43;;;3.35;;
20705;SDS011;10514;49.468;11.044;2022-07-21T00:31:32;4.07;;;2.72;;
20705;SDS011;10514;49.468;11.044;2022-07-21T00:33:58;4.60;;;2.90;;
20705;SDS011;10514;49.468;11.044;2022-07-21T00:36:24;4.18;;;2.58;;
20705;SDS011;10514;49.468;11.044;2022-07-21T00:38:49;4.63;;;2.40;;
20705;SDS011;10514;49.468;11.044;2022-07-21T00:41:15;3.47;;;2.30;;
20705;SDS011;10514;49.468;11.044;2022-07-21T00:43:41;4.10;;;2.20;;
20705;SDS011;10514;49.468;11.044;2022-07-21T00:46:07;3.97;;;2.55;;
20705;SDS011;10514;49.468;11.044;2022-07-21T00:48:33;3.25;;;2.38;;
20705;SDS011;10514;49.468;11.044;2022-07-21T00:50:59;7.32;;;2.30;;
20705;SDS011;10514;49.468;11.044;2022-07-21T00:53:25;3.55;;;2.60;;
20705;SDS011;10514;49.468;11.044;2022-07-21T00:55:51;3.28;;;2.30;;
20705;SDS011;10514;49.468;11.044;2022-07-21T00:58:17;7.55;;;3.08;;
20705;SDS011;10514;49.468;11.044;2022-07-21T01:00:43;4.75;;;2.83;;
20705;SDS011;10514;49.468;11.044;2022-07-21T01:03:09;4.90;;;2.80;;
20705;SDS011;10514;49.468;11.044;2022-07-21T01:05:35;5.55;;;2.80;;
20705;SDS011;10514;49.468;11.044;2022-07-21T01:08:01;4.75;;;3.40;;
20705;SDS011;10514;49.468;11.044;2022-07-21T01:10:30;5.03;;;2.67;;
20705;SDS011;10514;49.468;11.044;2022-07-21T01:12:56;5.05;;;3.28;;
20705;SDS011;10514;49.468;11.044;2022-07-21T01:15:22;3.85;;;2.60;;
20705;SDS011;10514;49.468;11.044;2022-07-21T01:17:48;6.07;;;3.05;;
20705;SDS011;10514;49.468;11.044;2022-07-21T01:20:16;4.90;;;3.30;;
20705;SDS011;10514;49.468;11.044;2022-07-21T01:22:44;4.82;;;2.88;;
20705;SDS011;10514;49.468;11.044;2022-07-21T01:25:13;5.70;;;2.45;;
20705;SDS011;10514;49.468;11.044;2022-07-21T01:27:39;5.90;;;3.00;;
20705;SDS011;10514;49.468;11.044;2022-07-21T01:30:05;8.43;;;3.30;;
20705;SDS011;10514;49.468;11.044;2022-07-21T01:32:33;5.30;;;2.95;;
20705;SDS011;10514;49.468;11.044;2022-07-21T01:34:59;3.50;;;2.72;;
20705;SDS011;10514;49.468;11.044;2022-07-21T01:37:27;4.82;;;3.13;;
20705;SDS011;10514;49.468;11.044;2022-07-21T01:39:53;3.65;;;2.80;;
20705;SDS011;10514;49.468;11.044;2022-07-21T01:42:38;5.13;;;2.70;;
20705;SDS011;10514;49.468;11.044;2022-07-21T01:45:04;4.85;;;3.40;;
20705;SDS011;10514;49.468;11.044;2022-07-21T01:47:31;9.82;;;3.38;;
20705;SDS011;10514;49.468;11.044;2022-07-21T01:49:57;6.30;;;3.17;;
20705;SDS011;10514;49.468;11.044;2022-07-21T01:52:22;6.53;;;2.72;;
20705;SDS011;10514;49.468;11.044;2022-07-21T01:54:48;3.85;;;3.28;;
20705;SDS011;10514;49.468;11.044;2022-07-21T01:57:14;4.72;;;3.00;;
20705;SDS011;10514;49.468;11.044;2022-07-21T01:59:40;6.07;;;2.92;;
20705;SDS011;10514;49.468;11.044;2022-07-21T02:02:06;3.78;;;3.10;;
20705;SDS011;10514;49.468;11.044;2022-07-21T02:04:32;4.35;;;3.30;;
20705;SDS011;10514;49.468;11.044;2022-07-21T02:06:59;4.30;;;2.92;;
20705;SDS011;10514;49.468;11.044;2022-07-21T02:09:25;4.22;;;2.90;;
20705;SDS011;10514;49.468;11.044;2022-07-21T02:11:51;5.32;;;3.45;;
20705;SDS011;10514;49.468;11.044;2022-07-21T02:14:17;5.55;;;3.03;;
20705;SDS011;10514;49.468;11.044;2022-07-21T02:16:43;5.65;;;3.03;;
20705;SDS011;10514;49.468;11.044;2022-07-21T02:19:09;6.35;;;3.50;;
20705;SDS011;10514;49.468;11.044;2022-07-21T02:21:35;3.38;;;2.65;;
20705;SDS011;10514;49.468;11.044;2022-07-21T02:24:01;3.53;;;3.00;;
20705;SDS011;10514;49.468;11.044;2022-07-21T02:26:27;4.70;;;3.35;;
20705;SDS011;10514;49.468;11.044;2022-07-21T02:28:53;5.25;;;3.28;;
20705;SDS011;10514;49.468;11.044;2022-07-21T02:31:19;4.20;;;3.17;;
20705;SDS011;10514;49.468;11.044;2022-07-21T02:33:45;7.88;;;4.38;;
20705;SDS011;10514;49.468;11.044;2022-07-21T02:36:11;4.53;;;3.42;;
20705;SDS011;10514;49.468;11.044;2022-07-21T02:38:37;4.55;;;3.65;;
20705;SDS011;10514;49.468;11.044;2022-07-21T02:41:03;4.57;;;3.47;;
20705;SDS011;10514;49.468;11.044;2022-07-21T02:43:29;6.20;;;3.78;;
20705;SDS011;10514;49.468;11.044;2022-07-21T02:45:55;6.07;;;4.05;;
20705;SDS011;10514;49.468;11.044;2022-07-21T02:48:21;4.88;;;3.47;;
20705;SDS011;10514;49.468;11.044;2022-07-21T02:50:46;7.03;;;4.32;;
20705;SDS011;10514;49.468;11.044;2022-07-21T02:53:14;6.57;;;4.45;;
20705;SDS011;10514;49.468;11.044;2022-07-21T02:55:44;6.78;;;4.38;;
20705;SDS011;10514;49.468;11.044;2022-07-21T02:58:12;7.45;;;3.88;;
20705;SDS011;10514;49.468;11.044;2022-07-21T03:00:48;6.65;;;3.75;;
20705;SDS011;10514;49.468;11.044;2022-07-21T03:03:25;5.18;;;3.78;;
20705;SDS011;10514;49.468;11.044;2022-07-21T03:05:52;8.98;;;3.72;;
20705;SDS011;10514;49.468;11.044;2022-07-21T03:08:18;6.88;;;4.65;;
20705;SDS011;10514;49.468;11.044;2022-07-21T03:10:44;8.88;;;4.57;;
20705;SDS011;10514;49.468;11.044;2022-07-21T03:13:11;5.20;;;3.95;;
20705;SDS011;10514;49.468;11.044;2022-07-21T03:15:37;7.20;;;5.53;;
20705;SDS011;10514;49.468;11.044;2022-07-21T03:18:03;9.75;;;5.38;;
20705;SDS011;10514;49.468;11.044;2022-07-21T03:20:30;8.20;;;5.32;;
20705;SDS011;10514;49.468;11.044;2022-07-21T03:22:57;9.52;;;5.63;;
20705;SDS011;10514;49.468;11.044;2022-07-21T03:25:23;5.80;;;4.85;;
20705;SDS011;10514;49.468;11.044;2022-07-21T03:27:49;7.15;;;4.90;;
20705;SDS011;10514;49.468;11.044;2022-07-21T03:30:15;7.28;;;5.07;;
20705;SDS011;10514;49.468;11.044;2022-07-21T03:32:41;10.38;;;5.25;;
20705;SDS011;10514;49.468;11.044;2022-07-21T03:35:08;5.85;;;4.63;;
20705;SDS011;10514;49.468;11.044;2022-07-21T03:37:42;7.50;;;5.20;;
20705;SDS011;10514;49.468;11.044;2022-07-21T03:40:09;8.25;;;5.15;;
20705;SDS011;10514;49.468;11.044;2022-07-21T03:42:37;6.38;;;5.53;;
20705;SDS011;10514;49.468;11.044;2022-07-21T03:45:03;7.60;;;5.28;;
20705;SDS011;10514;49.468;11.044;2022-07-21T03:47:29;8.23;;;6.00;;
20705;SDS011;10514;49.468;11.044;2022-07-21T03:49:55;7.63;;;5.43;;
20705;SDS011;10514;49.468;11.044;2022-07-21T03:52:21;9.23;;;5.82;;
20705;SDS011;10514;49.468;11.044;2022-07-21T03:54:47;8.20;;;6.38;;
20705;SDS011;10514;49.468;11.044;2022-07-21T03:57:13;7.93;;;6.30;;
20705;SDS011;10514;49.468;11.044;2022-07-21T03:59:39;12.07;;;7.75;;
20705;SDS011;10514;49.468;11.044;2022-07-21T04:02:05;13.15;;;7.20;;
20705;SDS011;10514;49.468;11.044;2022-07-21T04:04:30;8.38;;;6.43;;
20705;SDS011;10514;49.468;11.044;2022-07-21T04:06:56;9.30;;;6.13;;
20705;SDS011;10514;49.468;11.044;2022-07-21T04:09:22;7.57;;;6.28;;
20705;SDS011;10514;49.468;11.044;2022-07-21T04:11:48;7.05;;;5.60;;
20705;SDS011;10514;49.468;11.044;2022-07-21T04:14:14;7.93;;;6.25;;
20705;SDS011;10514;49.468;11.044;2022-07-21T04:16:40;9.18;;;6.93;;
20705;SDS011;10514;49.468;11.044;2022-07-21T04:19:06;8.50;;;6.43;;
20705;SDS011;10514;49.468;11.044;2022-07-21T04:21:32;7.38;;;5.60;;
20705;SDS011;10514;49.468;11.044;2022-07-21T04:23:58;8.25;;;7.03;;
20705;SDS011;10514;49.468;11.044;2022-07-21T04:26:24;11.98;;;7.45;;
20705;SDS011;10514;49.468;11.044;2022-07-21T04:28:50;11.57;;;7.88;;
20705;SDS011;10514;49.468;11.044;2022-07-21T04:31:16;8.57;;;6.75;;
20705;SDS011;10514;49.468;11.044;2022-07-21T04:33:42;11.80;;;7.75;;
20705;SDS011;10514;49.468;11.044;2022-07-21T04:36:08;9.50;;;7.65;;
20705;SDS011;10514;49.468;11.044;2022-07-21T04:38:33;11.70;;;7.70;;
20705;SDS011;10514;49.468;11.044;2022-07-21T04:40:59;12.27;;;8.00;;
20705;SDS011;10514;49.468;11.044;2022-07-21T04:43:25;9.57;;;7.55;;
20705;SDS011;10514;49.468;11.044;2022-07-21T04:45:51;13.55;;;9.50;;
20705;SDS011;10514;49.468;11.044;2022-07-21T04:48:17;9.60;;;7.60;;
20705;SDS011;10514;49.468;11.044;2022-07-21T04:50:42;10.27;;;7.78;;
20705;SDS011;10514;49.468;11.044;2022-07-21T04:53:08;12.65;;;9.27;;
20705;SDS011;10514;49.468;11.044;2022-07-21T04:55:36;11.98;;;8.75;;
20705;SDS011;10514;49.468;11.044;2022-07-21T04:58:02;11.13;;;8.48;;
20705;SDS011;10514;49.468;11.044;2022-07-21T05:00:28;12.48;;;9.13;;
20705;SDS011;10514;49.468;11.044;2022-07-21T05:02:55;14.27;;;10.02;;
20705;SDS011;10514;49.468;11.044;2022-07-21T05:05:21;11.57;;;8.52;;
20705;SDS011;10514;49.468;11.044;2022-07-21T05:07:48;11.43;;;8.65;;
20705;SDS011;10514;49.468;11.044;2022-07-21T05:10:15;11.40;;;8.05;;
20705;SDS011;10514;49.468;11.044;2022-07-21T05:12:42;11.80;;;8.93;;
20705;SDS011;10514;49.468;11.044;2022-07-21T05:15:09;14.32;;;9.07;;
20705;SDS011;10514;49.468;11.044;2022-07-21T05:17:36;14.07;;;10.38;;
20705;SDS011;10514;49.468;11.044;2022-07-21T05:20:02;12.77;;;9.88;;
20705;SDS011;10514;49.468;11.044;2022-07-21T05:22:29;14.20;;;10.75;;
20705;SDS011;10514;49.468;11.044;2022-07-21T05:24:55;12.30;;;8.88;;
20705;SDS011;10514;49.468;11.044;2022-07-21T05:27:21;13.07;;;10.70;;
20705;SDS011;10514;49.468;11.044;2022-07-21T05:29:47;12.45;;;10.85;;
20705;SDS011;10514;49.468;11.044;2022-07-21T05:32:13;14.40;;;10.50;;
20705;SDS011;10514;49.468;11.044;2022-07-21T05:34:39;16.10;;;11.43;;
20705;SDS011;10514;49.468;11.044;2022-07-21T05:37:05;15.80;;;11.43;;
20705;SDS011;10514;49.468;11.044;2022-07-21T05:39:31;14.00;;;11.77;;
20705;SDS011;10514;49.468;11.044;2022-07-21T05:41:57;15.05;;;11.55;;
20705;SDS011;10514;49.468;11.044;2022-07-21T05:44:23;13.70;;;10.55;;
20705;SDS011;10514;49.468;11.044;2022-07-21T05:46:48;15.45;;;11.93;;
20705;SDS011;10514;49.468;11.044;2022-07-21T05:49:14;12.55;;;10.70;;
20705;SDS011;10514;49.468;11.044;2022-07-21T05:51:40;16.08;;;12.07;;
20705;SDS011;10514;49.468;11.044;2022-07-21T05:54:06;14.30;;;12.27;;
20705;SDS011;10514;49.468;11.044;2022-07-21T05:56:32;14.35;;;11.40;;
20705;SDS011;10514;49.468;11.044;2022-07-21T05:58:57;14.75;;;12.68;;
20705;SDS011;10514;49.468;11.044;2022-07-21T06:01:23;16.88;;;13.75;;
20705;SDS011;10514;49.468;11.044;2022-07-21T06:03:50;15.55;;;12.68;;
20705;SDS011;10514;49.468;11.044;2022-07-21T06:06:17;18.52;;;12.57;;
20705;SDS011;10514;49.468;11.044;2022-07-21T06:08:45;15.10;;;12.63;;
20705;SDS011;10514;49.468;11.044;2022-07-21T06:11:11;17.35;;;13.30;;
20705;SDS011;10514;49.468;11.044;2022-07-21T06:13:38;17.10;;;12.07;;
20705;SDS011;10514;49.468;11.044;2022-07-21T06:16:04;15.25;;;13.65;;
20705;SDS011;10514;49.468;11.044;2022-07-21T06:18:30;23.67;;;13.05;;
20705;SDS011;10514;49.468;11.044;2022-07-21T06:20:56;14.20;;;12.45;;
20705;SDS011;10514;49.468;11.044;2022-07-21T06:23:22;24.42;;;13.90;;
20705;SDS011;10514;49.468;11.044;2022-07-21T06:25:48;14.32;;;11.60;;
20705;SDS011;10514;49.468;11.044;2022-07-21T06:28:14;19.17;;;15.05;;
20705;SDS011;10514;49.468;11.044;2022-07-21T06:30:40;16.17;;;12.00;;
20705;SDS011;10514;49.468;11.044;2022-07-21T06:33:06;20.30;;;14.32;;
20705;SDS011;10514;49.468;11.044;2022-07-21T06:35:33;19.08;;;15.45;;
20705;SDS011;10514;49.468;11.044;2022-07-21T06:37:58;17.45;;;12.98;;
20705;SDS011;10514;49.468;11.044;2022-07-21T06:40:24;15.13;;;12.75;;
20705;SDS011;10514;49.468;11.044;2022-07-21T06:42:50;16.15;;;13.23;;
20705;SDS011;10514;49.468;11.044;2022-07-21T06:45:16;17.25;;;12.57;;
20705;SDS011;10514;49.468;11.044;2022-07-21T06:47:43;16.73;;;14.65;;
20705;SDS011;10514;49.468;11.044;2022-07-21T06:50:09;18.80;;;14.95;;
20705;SDS011;10514;49.468;11.044;2022-07-21T06:52:35;17.30;;;13.77;;
20705;SDS011;10514;49.468;11.044;2022-07-21T06:55:02;17.02;;;14.90;;
20705;SDS011;10514;49.468;11.044;2022-07-21T06:57:29;16.25;;;14.50;;
20705;SDS011;10514;49.468;11.044;2022-07-21T06:59:55;18.10;;;15.27;;
20705;SDS011;10514;49.468;11.044;2022-07-21T07:02:21;17.30;;;13.90;;
20705;SDS011;10514;49.468;11.044;2022-07-21T07:04:47;16.80;;;13.73;;
20705;SDS011;10514;49.468;11.044;2022-07-21T07:07:13;15.57;;;12.95;;
20705;SDS011;10514;49.468;11.044;2022-07-21T07:09:39;17.95;;;13.27;;
20705;SDS011;10514;49.468;11.044;2022-07-21T07:12:06;22.15;;;13.98;;
20705;SDS011;10514;49.468;11.044;2022-07-21T07:14:34;15.55;;;13.43;;
20705;SDS011;10514;49.468;11.044;2022-07-21T07:17:01;18.27;;;13.50;;
20705;SDS011;10514;49.468;11.044;2022-07-21T07:19:28;17.73;;;13.98;;
20705;SDS011;10514;49.468;11.044;2022-07-21T07:21:54;17.60;;;12.40;;
20705;SDS011;10514;49.468;11.044;2022-07-21T07:24:20;13.90;;;11.05;;
20705;SDS011;10514;49.468;11.044;2022-07-21T07:26:46;17.38;;;14.55;;
20705;SDS011;10514;49.468;11.044;2022-07-21T07:29:12;16.48;;;14.45;;
20705;SDS011;10514;49.468;11.044;2022-07-21T07:31:38;16.70;;;13.15;;
20705;SDS011;10514;49.468;11.044;2022-07-21T07:34:04;18.10;;;13.98;;
20705;SDS011;10514;49.468;11.044;2022-07-21T07:36:30;15.35;;;13.32;;
20705;SDS011;10514;49.468;11.044;2022-07-21T07:38:56;20.85;;;14.38;;
20705;SDS011;10514;49.468;11.044;2022-07-21T07:41:23;17.67;;;14.05;;
20705;SDS011;10514;49.468;11.044;2022-07-21T07:43:50;15.55;;;13.38;;
20705;SDS011;10514;49.468;11.044;2022-07-21T07:46:16;17.90;;;13.88;;
20705;SDS011;10514;49.468;11.044;2022-07-21T07:48:43;15.73;;;13.70;;
20705;SDS011;10514;49.468;11.044;2022-07-21T07:51:09;16.65;;;14.85;;
20705;SDS011;10514;49.468;11.044;2022-07-21T07:53:36;17.48;;;13.05;;
20705;SDS011;10514;49.468;11.044;2022-07-21T07:56:02;18.35;;;12.88;;
20705;SDS011;10514;49.468;11.044;2022-07-21T07:58:28;18.15;;;13.95;;
20705;SDS011;10514;49.468;11.044;2022-07-21T08:00:54;16.75;;;11.93;;
20705;SDS011;10514;49.468;11.044;2022-07-21T08:03:20;17.35;;;13.57;;
20705;SDS011;10514;49.468;11.044;2022-07-21T08:05:47;16.80;;;12.80;;
20705;SDS011;10514;49.468;11.044;2022-07-21T08:08:13;14.80;;;12.25;;
20705;SDS011;10514;49.468;11.044;2022-07-21T08:10:39;13.50;;;12.05;;
20705;SDS011;10514;49.468;11.044;2022-07-21T08:13:05;17.25;;;12.77;;
20705;SDS011;10514;49.468;11.044;2022-07-21T08:15:33;15.88;;;13.07;;
20705;SDS011;10514;49.468;11.044;2022-07-21T08:17:59;19.13;;;12.48;;
20705;SDS011;10514;49.468;11.044;2022-07-21T08:20:25;13.50;;;11.57;;
20705;SDS011;10514;49.468;11.044;2022-07-21T08:22:51;17.40;;;11.10;;
20705;SDS011;10514;49.468;11.044;2022-07-21T08:25:17;13.05;;;10.75;;
20705;SDS011;10514;49.468;11.044;2022-07-21T08:27:42;13.60;;;11.50;;
20705;SDS011;10514;49.468;11.044;2022-07-21T08:30:09;12.98;;;11.63;;
20705;SDS011;10514;49.468;11.044;2022-07-21T08:32:35;13.00;;;11.40;;
20705;SDS011;10514;49.468;11.044;2022-07-21T08:35:01;15.13;;;11.38;;
20705;SDS011;10514;49.468;11.044;2022-07-21T08:37:27;13.55;;;11.02;;
20705;SDS011;10514;49.468;11.044;2022-07-21T08:39:53;13.60;;;10.40;;
20705;SDS011;10514;49.468;11.044;2022-07-21T08:42:19;13.63;;;9.48;;
20705;SDS011;10514;49.468;11.044;2022-07-21T08:44:45;12.27;;;9.68;;
20705;SDS011;10514;49.468;11.044;2022-07-21T08:47:11;12.25;;;10.13;;
20705;SDS011;10514;49.468;11.044;2022-07-21T08:49:37;14.48;;;9.98;;
20705;SDS011;10514;49.468;11.044;2022-07-21T08:52:05;11.85;;;10.25;;
20705;SDS011;10514;49.468;11.044;2022-07-21T08:54:32;11.90;;;9.68;;
20705;SDS011;10514;49.468;11.044;2022-07-21T08:56:58;9.55;;;8.55;;
20705;SDS011;10514;49.468;11.044;2022-07-21T08:59:24;10.75;;;9.25;;
20705;SDS011;10514;49.468;11.044;2022-07-21T09:01:51;9.80;;;8.68;;
20705;SDS011;10514;49.468;11.044;2022-07-21T09:04:28;10.20;;;8.32;;
20705;SDS011;10514;49.468;11.044;2022-07-21T09:06:59;9.52;;;7.90;;
20705;SDS011;10514;49.468;11.044;2022-07-21T09:09:29;7.75;;;6.95;;
20705;SDS011;10514;49.468;11.044;2022-07-21T09:11:57;9.95;;;7.07;;
20705;SDS011;10514;49.468;11.044;2022-07-21T09:14:25;7.90;;;7.10;;
20705;SDS011;10514;49.468;11.044;2022-07-21T09:16:52;9.48;;;8.02;;
20705;SDS011;10514;49.468;11.044;2022-07-21T09:19:30;9.98;;;8.27;;
20705;SDS011;10514;49.468;11.044;2022-07-21T09:22:07;9.63;;;7.97;;
20705;SDS011;10514;49.468;11.044;2022-07-21T09:24:43;8.88;;;7.97;;
20705;SDS011;10514;49.468;11.044;2022-07-21T09:34:58;9.95;;;7.57;;
20705;SDS011;10514;49.468;11.044;2022-07-21T09:37:28;8.15;;;7.40;;
20705;SDS011;10514;49.468;11.044;2022-07-21T09:40:04;9.02;;;7.95;;
20705;SDS011;10514;49.468;11.044;2022-07-21T09:42:40;8.88;;;7.43;;
20705;SDS011;10514;49.468;11.044;2022-07-21T09:47:37;8.25;;;7.40;;
20705;SDS011;10514;49.468;11.044;2022-07-21T09:50:04;8.48;;;7.43;;
20705;SDS011;10514;49.468;11.044;2022-07-21T09:52:42;9.80;;;7.50;;
20705;SDS011;10514;49.468;11.044;2022-07-21T09:55:10;8.93;;;7.32;;
20705;SDS011;10514;49.468;11.044;2022-07-21T09:57:37;10.18;;;7.75;;
20705;SDS011;10514;49.468;11.044;2022-07-21T10:00:04;8.98;;;7.82;;
20705;SDS011;10514;49.468;11.044;2022-07-21T10:02:33;8.63;;;7.72;;
20705;SDS011;10514;49.468;11.044;2022-07-21T10:05:06;8.73;;;7.82;;
20705;SDS011;10514;49.468;11.044;2022-07-21T10:07:36;11.18;;;8.80;;
20705;SDS011;10514;49.468;11.044;2022-07-21T10:10:04;9.60;;;7.72;;
20705;SDS011;10514;49.468;11.044;2022-07-21T10:12:30;13.15;;;6.82;;
20705;SDS011;10514;49.468;11.044;2022-07-21T10:14:56;7.18;;;6.03;;
20705;SDS011;10514;49.468;11.044;2022-07-21T10:17:22;7.45;;;6.43;;
20705;SDS011;10514;49.468;11.044;2022-07-21T10:19:57;6.80;;;6.18;;
20705;SDS011;10514;49.468;11.044;2022-07-21T10:22:50;7.85;;;6.13;;
20705;SDS011;10514;49.468;11.044;2022-07-21T10:25:24;7.20;;;6.50;;
20705;SDS011;10514;49.468;11.044;2022-07-21T10:28:11;8.13;;;6.93;;
20705;SDS011;10514;49.468;11.044;2022-07-21T10:30:44;6.72;;;5.70;;
20705;SDS011;10514;49.468;11.044;2022-07-21T10:33:12;8.48;;;6.05;;
20705;SDS011;10514;49.468;11.044;2022-07-21T10:35:42;7.82;;;7.03;;
20705;SDS011;10514;49.468;11.044;2022-07-21T10:40:56;6.55;;;5.95;;
20705;SDS011;10514;49.468;11.044;2022-07-21T10:45:49;7.82;;;6.00;;
20705;SDS011;10514;49.468;11.044;2022-07-21T10:51:09;8.50;;;6.15;;
20705;SDS011;10514;49.468;11.044;2022-07-21T10:53:37;6.50;;;5.78;;
20705;SDS011;10514;49.468;11.044;2022-07-21T10:56:04;7.35;;;5.50;;
20705;SDS011;10514;49.468;11.044;2022-07-21T11:01:26;8.05;;;5.00;;
20705;SDS011;10514;49.468;11.044;2022-07-21T11:04:07;7.53;;;5.32;;
20705;SDS011;10514;49.468;11.044;2022-07-21T11:06:42;4.15;;;3.20;;
20705;SDS011;10514;49.468;11.044;2022-07-21T11:09:11;8.88;;;3.65;;
20705;SDS011;10514;49.468;11.044;2022-07-21T11:14:22;4.35;;;3.30;;
20705;SDS011;10514;49.468;11.044;2022-07-21T11:17:00;4.50;;;3.38;;
20705;SDS011;10514;49.468;11.044;2022-07-21T11:19:41;4.55;;;3.53;;
20705;SDS011;10514;49.468;11.044;2022-07-21T11:22:20;4.57;;;3.85;;
20705;SDS011;10514;49.468;11.044;2022-07-21T11:24:49;5.45;;;4.15;;
20705;SDS011;10514;49.468;11.044;2022-07-21T11:27:17;6.18;;;4.13;;
20705;SDS011;10514;49.468;11.044;2022-07-21T11:29:46;4.35;;;3.95;;
20705;SDS011;10514;49.468;11.044;2022-07-21T11:32:13;4.70;;;3.90;;
20705;SDS011;10514;49.468;11.044;2022-07-21T11:34:50;4.53;;;4.03;;
20705;SDS011;10514;49.468;11.044;2022-07-21T11:37:17;5.90;;;4.35;;
20705;SDS011;10514;49.468;11.044;2022-07-21T11:39:51;7.30;;;4.40;;
20705;SDS011;10514;49.468;11.044;2022-07-21T11:42:17;5.40;;;4.38;;
20705;SDS011;10514;49.468;11.044;2022-07-21T11:44:43;4.55;;;4.15;;
20705;SDS011;10514;49.468;11.044;2022-07-21T11:47:10;5.45;;;4.95;;
20705;SDS011;10514;49.468;11.044;2022-07-21T11:49:38;4.13;;;3.72;;
20705;SDS011;10514;49.468;11.044;2022-07-21T11:52:06;4.65;;;3.75;;
20705;SDS011;10514;49.468;11.044;2022-07-21T11:54:48;4.95;;;3.53;;
20705;SDS011;10514;49.468;11.044;2022-07-21T11:57:19;3.88;;;3.47;;
20705;SDS011;10514;49.468;11.044;2022-07-21T11:59:46;5.75;;;3.75;;
20705;SDS011;10514;49.468;11.044;2022-07-21T12:02:13;7.30;;;4.00;;
20705;SDS011;10514;49.468;11.044;2022-07-21T12:04:43;5.63;;;4.28;;
20705;SDS011;10514;49.468;11.044;2022-07-21T12:07:36;4.47;;;3.92;;
20705;SDS011;10514;49.468;11.044;2022-07-21T12:10:11;4.20;;;3.80;;
20705;SDS011;10514;49.468;11.044;2022-07-21T12:15:23;5.47;;;4.93;;
20705;SDS011;10514;49.468;11.044;2022-07-21T12:18:07;6.07;;;3.72;;
20705;SDS011;10514;49.468;11.044;2022-07-21T12:20:35;4.57;;;3.45;;
20705;SDS011;10514;49.468;11.044;2022-07-21T12:23:23;7.50;;;3.90;;
20705;SDS011;10514;49.468;11.044;2022-07-21T12:25:51;5.10;;;3.83;;
20705;SDS011;10514;49.468;11.044;2022-07-21T12:28:18;6.25;;;3.60;;
20705;SDS011;10514;49.468;11.044;2022-07-21T12:30:49;4.05;;;3.65;;
20705;SDS011;10514;49.468;11.044;2022-07-21T12:35:44;6.47;;;3.65;;
20705;SDS011;10514;49.468;11.044;2022-07-21T12:38:21;3.85;;;3.42;;
20705;SDS011;10514;49.468;11.044;2022-07-21T12:40:55;6.50;;;4.00;;
20705;SDS011;10514;49.468;11.044;2022-07-21T12:43:22;9.48;;;4.07;;
20705;SDS011;10514;49.468;11.044;2022-07-21T12:45:57;5.97;;;3.88;;
20705;SDS011;10514;49.468;11.044;2022-07-21T12:48:29;5.28;;;3.47;;
20705;SDS011;10514;49.468;11.044;2022-07-21T12:51:41;11.95;;;4.10;;
20705;SDS011;10514;49.468;11.044;2022-07-21T12:53:45;5.82;;;3.70;;
20705;SDS011;10514;49.468;11.044;2022-07-21T12:56:17;7.20;;;3.67;;
20705;SDS011;10514;49.468;11.044;2022-07-21T12:58:57;7.75;;;4.57;;
20705;SDS011;10514;49.468;11.044;2022-07-21T13:01:25;5.65;;;3.95;;
20705;SDS011;10514;49.468;11.044;2022-07-21T13:03:52;3.97;;;3.38;;
20705;SDS011;10514;49.468;11.044;2022-07-21T13:06:19;6.55;;;3.75;;
20705;SDS011;10514;49.468;11.044;2022-07-21T13:08:45;4.47;;;4.07;;
20705;SDS011;10514;49.468;11.044;2022-07-21T13:11:13;4.10;;;3.67;;
20705;SDS011;10514;49.468;11.044;2022-07-21T13:13:41;3.95;;;3.55;;
20705;SDS011;10514;49.468;11.044;2022-07-21T13:16:07;5.15;;;3.45;;
20705;SDS011;10514;49.468;11.044;2022-07-21T13:18:33;7.32;;;3.53;;
20705;SDS011;10514;49.468;11.044;2022-07-21T13:20:59;4.30;;;3.60;;
20705;SDS011;10514;49.468;11.044;2022-07-21T13:23:25;3.95;;;3.55;;
20705;SDS011;10514;49.468;11.044;2022-07-21T13:25:51;4.78;;;3.63;;
20705;SDS011;10514;49.468;11.044;2022-07-21T13:28:17;4.30;;;3.90;;
20705;SDS011;10514;49.468;11.044;2022-07-21T13:30:44;3.95;;;3.55;;
20705;SDS011;10514;49.468;11.044;2022-07-21T13:33:11;3.67;;;3.17;;
20705;SDS011;10514;49.468;11.044;2022-07-21T13:35:37;4.40;;;3.55;;
20705;SDS011;10514;49.468;11.044;2022-07-21T13:38:03;7.05;;;3.70;;
20705;SDS011;10514;49.468;11.044;2022-07-21T13:40:29;7.47;;;3.67;;
20705;SDS011;10514;49.468;11.044;2022-07-21T13:42:55;4.28;;;3.75;;
20705;SDS011;10514;49.468;11.044;2022-07-21T13:45:21;4.95;;;3.55;;
20705;SDS011;10514;49.468;11.044;2022-07-21T13:47:47;5.43;;;3.80;;
20705;SDS011;10514;49.468;11.044;2022-07-21T13:50:13;5.80;;;3.88;;
20705;SDS011;10514;49.468;11.044;2022-07-21T13:52:38;5.03;;;3.38;;
20705;SDS011;10514;49.468;11.044;2022-07-21T13:55:06;4.22;;;3.45;;
20705;SDS011;10514;49.468;11.044;2022-07-21T13:57:32;4.78;;;3.33;;
20705;SDS011;10514;49.468;11.044;2022-07-21T13:59:58;4.20;;;3.55;;
20705;SDS011;10514;49.468;11.044;2022-07-21T14:02:24;6.57;;;3.38;;
20705;SDS011;10514;49.468;11.044;2022-07-21T14:04:50;6.47;;;3.08;;
20705;SDS011;10514;49.468;11.044;2022-07-21T14:07:16;3.47;;;3.17;;
20705;SDS011;10514;49.468;11.044;2022-07-21T14:09:42;4.30;;;3.05;;
20705;SDS011;10514;49.468;11.044;2022-07-21T14:12:08;4.75;;;3.22;;
20705;SDS011;10514;49.468;11.044;2022-07-21T14:14:35;7.65;;;3.10;;
20705;SDS011;10514;49.468;11.044;2022-07-21T14:17:02;3.90;;;3.03;;
20705;SDS011;10514;49.468;11.044;2022-07-21T14:19:28;3.13;;;2.80;;
20705;SDS011;10514;49.468;11.044;2022-07-21T14:21:54;4.43;;;3.30;;
20705;SDS011;10514;49.468;11.044;2022-07-21T14:24:19;8.88;;;3.22;;
20705;SDS011;10514;49.468;11.044;2022-07-21T14:27:04;3.95;;;3.50;;
20705;SDS011;10514;49.468;11.044;2022-07-21T14:29:30;4.88;;;3.20;;
20705;SDS011;10514;49.468;11.044;2022-07-21T14:31:56;5.22;;;3.40;;
20705;SDS011;10514;49.468;11.044;2022-07-21T14:34:21;5.53;;;3.90;;
20705;SDS011;10514;49.468;11.044;2022-07-21T14:36:47;4.57;;;3.33;;
20705;SDS011;10514;49.468;11.044;2022-07-21T14:39:14;6.97;;;3.58;;
20705;SDS011;10514;49.468;11.044;2022-07-21T14:41:40;4.80;;;3.70;;
20705;SDS011;10514;49.468;11.044;2022-07-21T14:44:06;7.35;;;3.58;;
20705;SDS011;10514;49.468;11.044;2022-07-21T14:46:32;3.97;;;3.17;;
20705;SDS011;10514;49.468;11.044;2022-07-21T14:48:58;6.57;;;3.63;;
20705;SDS011;10514;49.468;11.044;2022-07-21T14:51:24;6.90;;;3.72;;
20705;SDS011;10514;49.468;11.044;2022-07-21T14:53:50;7.40;;;3.78;;
20705;SDS011;10514;49.468;11.044;2022-07-21T14:56:15;4.28;;;3.80;;
20705;SDS011;10514;49.468;11.044;2022-07-21T14:58:41;5.10;;;4.05;;